createdAt,value
2017-03-11T00:00:43.728Z,91.97
2017-03-11T00:01:57.424Z,91.19
2017-03-11T00:03:09.959Z,90.86
2017-03-11T00:04:23.040Z,92.25
2017-03-11T00:05:36.785Z,90.91
2017-03-11T00:06:49.860Z,92.5
2017-03-11T00:08:03.567Z,91.67
2017-03-11T00:09:16.656Z,92.98
2017-03-11T00:10:30.388Z,90.57
2017-03-11T00:11:44.071Z,90.57
2017-03-11T00:12:57.759Z,89.31
2017-03-11T00:14:11.494Z,91.15
2017-03-11T00:15:25.230Z,92.41
2017-03-11T00:16:38.327Z,93.27
2017-03-11T00:17:52.034Z,93.18
2017-03-11T00:19:05.139Z,93.85
2017-03-11T00:20:18.840Z,96.66
2017-03-11T00:21:32.524Z,96.84
2017-03-11T00:22:46.182Z,96.36
2017-03-11T00:23:59.896Z,95.88
2017-03-11T00:25:13.616Z,97.14
2017-03-11T00:26:27.332Z,96.61
2017-03-11T00:27:41.054Z,97.28
2017-03-11T00:28:54.729Z,94.68
2017-03-11T00:30:08.407Z,94.38
2017-03-11T00:31:21.503Z,94.48
2017-03-11T00:32:35.256Z,96.41
2017-03-11T00:33:48.935Z,94.96
2017-03-11T00:35:02.051Z,94.43
2017-03-11T00:36:15.748Z,94.14
2017-03-11T00:37:29.466Z,95.4
2017-03-11T00:38:43.167Z,94.92
2017-03-11T00:39:56.275Z,97.42
2017-03-11T00:41:09.964Z,93.47
2017-03-11T00:42:23.694Z,93.56
2017-03-11T00:43:37.409Z,93.9
2017-03-11T00:44:50.497Z,92.74
2017-03-11T00:46:04.194Z,93.71
2017-03-11T00:47:17.924Z,93.85
2017-03-11T00:48:31.627Z,93.04
2017-03-11T00:49:45.365Z,92.31
2017-03-11T00:50:59.045Z,92.5
2017-03-11T00:52:12.754Z,90.57
2017-03-11T00:53:25.882Z,90.86
2017-03-11T00:54:39.614Z,91.63
2017-03-11T00:55:53.316Z,94.24
2017-03-11T00:57:07.056Z,95.4
2017-03-11T00:58:20.767Z,95.5
2017-03-11T00:59:33.370Z,97.62
2017-03-11T01:00:47.041Z,99.36
2017-03-11T01:02:00.144Z,97.42
2017-03-11T01:03:13.880Z,98.34
2017-03-11T01:04:27.652Z,99.31
2017-03-11T01:05:41.386Z,99.99
2017-03-11T01:06:55.147Z,99.69
2017-03-11T01:08:07.679Z,99.11
2017-03-11T01:09:20.929Z,98.15
2017-03-11T01:10:34.628Z,97.81
2017-03-11T01:11:47.137Z,99.31
2017-03-11T01:13:00.827Z,99.99
2017-03-11T01:14:14.673Z,99.99
2017-03-11T01:15:28.840Z,99.99
2017-03-11T01:16:42.530Z,98.34
2017-03-11T01:17:56.224Z,94.68
2017-03-11T01:19:10.048Z,93.62
2017-03-11T01:20:23.898Z,91.68
2017-03-11T01:21:37.852Z,94.87
2017-03-11T01:22:51.522Z,97.09
2017-03-11T01:24:05.356Z,95.35
2017-03-11T01:25:19.603Z,98.34
2017-03-11T01:26:32.864Z,99.02
2017-03-11T01:27:45.983Z,99.79
2017-03-11T01:28:59.752Z,99.4
2017-03-11T01:30:13.681Z,98.73
2017-03-11T01:31:27.835Z,94.87
2017-03-11T01:32:41.547Z,91.68
2017-03-11T01:33:55.247Z,91.15
2017-03-11T01:35:09.050Z,90.67
2017-03-11T01:36:21.725Z,90.57
2017-03-11T01:37:35.804Z,90.86
2017-03-11T01:38:49.495Z,91.05
2017-03-11T01:40:03.183Z,92.11
2017-03-11T01:41:16.537Z,92.21
2017-03-11T01:42:30.351Z,94.24
2017-03-11T01:43:44.037Z,94.24
2017-03-11T01:44:57.736Z,95.3
2017-03-11T01:46:11.614Z,94.62
2017-03-11T01:47:25.737Z,95.74
2017-03-11T01:48:38.295Z,96.41
2017-03-11T01:49:50.807Z,97.96
2017-03-11T01:51:04.516Z,98.73
2017-03-11T01:52:18.375Z,96.51
2017-03-11T01:53:32.482Z,95.64
2017-03-11T01:54:46.162Z,95.64
2017-03-11T01:55:59.862Z,96.61
2017-03-11T01:57:13.722Z,95.06
2017-03-11T01:58:27.540Z,94.87
2017-03-11T01:59:41.340Z,95.64
2017-03-11T02:00:55.082Z,95.93
2017-03-11T02:02:08.263Z,96.8
2017-03-11T02:03:21.732Z,97.86
2017-03-11T02:04:35.490Z,96.41
2017-03-11T02:05:49.181Z,96.41
2017-03-11T02:07:02.872Z,95.06
2017-03-11T02:08:16.769Z,94.87
2017-03-11T02:09:30.373Z,94
2017-03-11T02:10:44.094Z,93.71
2017-03-11T02:11:57.810Z,93.52
2017-03-11T02:13:10.698Z,93.23
2017-03-11T02:14:24.929Z,93.9
2017-03-11T02:15:39.031Z,93.04
2017-03-11T02:16:53.009Z,93.9
2017-03-11T02:18:07.233Z,94.87
2017-03-11T02:19:21.525Z,95.06
2017-03-11T02:20:35.587Z,95.45
2017-03-11T02:21:49.614Z,97.09
2017-03-11T02:23:03.494Z,97.96
2017-03-11T02:24:17.561Z,99.4
2017-03-11T02:25:30.699Z,99.79
2017-03-11T02:26:44.912Z,99.5
2017-03-11T02:27:59.205Z,99.31
2017-03-11T02:29:13.583Z,99.99
2017-03-11T02:30:27.927Z,99.99
2017-03-11T02:31:42.117Z,99.99
2017-03-11T02:32:55.836Z,99.69
2017-03-11T02:34:10.164Z,98.83
2017-03-11T02:35:24.553Z,99.02
2017-03-11T02:36:38.722Z,99.99
2017-03-11T02:37:52.754Z,99.99
2017-03-11T02:39:06.864Z,99.11
2017-03-11T02:40:20.593Z,97.47
2017-03-11T02:41:34.317Z,96.8
2017-03-11T02:42:47.865Z,96.8
2017-03-11T02:44:02.094Z,96.99
2017-03-11T02:45:16.535Z,96.51
2017-03-11T02:46:30.874Z,95.06
2017-03-11T02:47:44.460Z,93.32
2017-03-11T02:48:58.658Z,93.52
2017-03-11T02:50:13.031Z,93.23
2017-03-11T02:51:27.400Z,93.8
2017-03-11T02:52:41.050Z,94
2017-03-11T02:53:55.458Z,94.1
2017-03-11T02:55:09.146Z,93.71
2017-03-11T02:56:22.852Z,94
2017-03-11T02:57:37.148Z,93.62
2017-03-11T02:58:51.299Z,93.9
2017-03-11T03:00:05.450Z,94
2017-03-11T03:01:19.799Z,94
2017-03-11T03:02:33.489Z,94
2017-03-11T03:03:47.488Z,93.8
2017-03-11T03:05:00.992Z,93.71
2017-03-11T03:06:15.327Z,94.1
2017-03-11T03:07:29.024Z,93.62
2017-03-11T03:08:43.042Z,93.62
2017-03-11T03:09:57.277Z,94.04
2017-03-11T03:11:10.391Z,93.52
2017-03-11T03:12:24.713Z,92.94
2017-03-11T03:13:38.982Z,93.8
2017-03-11T03:14:53.419Z,92.02
2017-03-11T03:16:08.045Z,92.98
2017-03-11T03:17:22.400Z,93.95
2017-03-11T03:18:36.610Z,93.56
2017-03-11T03:19:50.993Z,93.27
2017-03-11T03:21:05.378Z,93.27
2017-03-11T03:22:19.739Z,92.41
2017-03-11T03:23:34.101Z,92.98
2017-03-11T03:24:48.458Z,93.76
2017-03-11T03:26:02.787Z,92.74
2017-03-11T03:27:17.175Z,92.55
2017-03-11T03:28:31.500Z,94.2
2017-03-11T03:29:45.778Z,92.94
2017-03-11T03:31:00.185Z,92.36
2017-03-11T03:32:14.567Z,89.85
2017-03-11T03:33:28.870Z,88.54
2017-03-11T03:34:43.245Z,88.15
2017-03-11T03:35:57.588Z,87.48
2017-03-11T03:37:11.969Z,87.77
2017-03-11T03:38:25.696Z,88.15
2017-03-11T03:39:39.981Z,88.73
2017-03-11T03:40:54.427Z,88.35
2017-03-11T03:42:08.854Z,88.83
2017-03-11T03:43:23.216Z,88.64
2017-03-11T03:44:36.819Z,88.73
2017-03-11T03:45:49.860Z,89.61
2017-03-11T03:47:04.342Z,89.31
2017-03-11T03:48:18.016Z,89.89
2017-03-11T03:49:32.565Z,90.19
2017-03-11T03:50:46.878Z,90.57
2017-03-11T03:52:01.126Z,91.53
2017-03-11T03:53:15.479Z,91.92
2017-03-11T03:54:28.571Z,90.47
2017-03-11T03:55:42.824Z,90.19
2017-03-11T03:56:57.108Z,89.99
2017-03-11T03:58:10.816Z,90.19
2017-03-11T03:59:23.882Z,90.86
2017-03-11T04:00:36.894Z,91.05
2017-03-11T04:01:51.167Z,91.15
2017-03-11T04:03:04.888Z,90.86
2017-03-11T04:04:19.224Z,91.05
2017-03-11T04:05:32.339Z,90.28
2017-03-11T04:06:46.571Z,90.09
2017-03-11T04:08:00.816Z,90.19
2017-03-11T04:09:14.539Z,90.19
2017-03-11T04:10:28.963Z,90.09
2017-03-11T04:11:43.220Z,90.47
2017-03-11T04:12:57.608Z,90.57
2017-03-11T04:14:11.349Z,90.57
2017-03-11T04:15:25.084Z,91.25
2017-03-11T04:16:39.343Z,90.95
2017-03-11T04:17:53.586Z,90.95
2017-03-11T04:19:07.909Z,91.83
2017-03-11T04:20:22.273Z,92.6
2017-03-11T04:21:36.553Z,92.55
2017-03-11T04:22:50.934Z,93.08
2017-03-11T04:24:05.254Z,93.32
2017-03-11T04:25:19.634Z,93.23
2017-03-11T04:26:33.326Z,92.16
2017-03-11T04:27:47.047Z,92.07
2017-03-11T04:29:01.400Z,91.97
2017-03-11T04:30:15.820Z,91.53
2017-03-11T04:31:30.252Z,91.3
2017-03-11T04:32:44.627Z,91.78
2017-03-11T04:33:59.051Z,92.07
2017-03-11T04:35:13.444Z,91.3
2017-03-11T04:36:27.797Z,91.68
2017-03-11T04:37:42.041Z,91.97
2017-03-11T04:38:56.377Z,91.97
2017-03-11T04:40:10.714Z,92.16
2017-03-11T04:41:24.436Z,92.16
2017-03-11T04:42:38.768Z,92.55
2017-03-11T04:43:53.168Z,92.55
2017-03-11T04:45:07.563Z,93.32
2017-03-11T04:46:21.236Z,93.04
2017-03-11T04:47:34.883Z,92.74
2017-03-11T04:48:49.291Z,93.62
2017-03-11T04:50:03.579Z,93.8
2017-03-11T04:51:15.369Z,94
2017-03-11T04:52:28.475Z,93.8
2017-03-11T04:53:42.692Z,93.8
2017-03-11T04:54:57.006Z,94.1
2017-03-11T04:56:11.253Z,94.2
2017-03-11T04:57:25.603Z,94
2017-03-11T04:58:39.927Z,94.38
2017-03-11T04:59:54.278Z,94
2017-03-11T05:01:08.595Z,94.38
2017-03-11T05:02:23.047Z,93.9
2017-03-11T05:03:37.401Z,94.2
2017-03-11T05:04:51.742Z,94.1
2017-03-11T05:06:06.011Z,94
2017-03-11T05:07:19.781Z,94.77
2017-03-11T05:08:33.870Z,94.87
2017-03-11T05:09:47.806Z,95.45
2017-03-11T05:11:01.746Z,95.74
2017-03-11T05:12:15.817Z,96.61
2017-03-11T05:13:30.092Z,97.38
2017-03-11T05:14:43.948Z,97.67
2017-03-11T05:15:57.792Z,97.47
2017-03-11T05:17:11.911Z,97.57
2017-03-11T05:18:25.901Z,97.57
2017-03-11T05:19:39.314Z,98.34
2017-03-11T05:20:52.986Z,98.44
2017-03-11T05:22:06.896Z,99.5
2017-03-11T05:23:21.127Z,99.02
2017-03-11T05:24:33.743Z,99.21
2017-03-11T05:25:47.458Z,99.26
2017-03-11T05:27:01.166Z,99.99
2017-03-11T05:28:14.436Z,99.88
2017-03-11T05:29:28.612Z,99.98
2017-03-11T05:30:42.337Z,99.69
2017-03-11T05:31:56.183Z,99.99
2017-03-11T05:33:10.134Z,99.99
2017-03-11T05:34:23.999Z,99.99
2017-03-11T05:35:38.081Z,99.99
2017-03-11T05:36:51.202Z,99.99
2017-03-11T05:38:05.031Z,99.99
2017-03-11T05:39:19.245Z,99.99
2017-03-11T05:40:32.482Z,99.99
2017-03-11T05:41:45.600Z,99.99
2017-03-11T05:42:58.706Z,99.99
2017-03-11T05:44:12.544Z,99.99
2017-03-11T05:45:26.623Z,99.99
2017-03-11T05:46:40.323Z,99.99
2017-03-11T05:47:54.014Z,99.99
2017-03-11T05:49:07.794Z,99.99
2017-03-11T05:50:21.085Z,99.99
2017-03-11T05:51:35.069Z,99.99
2017-03-11T05:52:48.793Z,99.99
2017-03-11T05:54:02.523Z,99.99
2017-03-11T05:55:16.422Z,99.99
2017-03-11T05:56:30.144Z,99.99
2017-03-11T05:57:43.271Z,99.99
2017-03-11T05:58:57.009Z,99.99
2017-03-11T06:00:10.855Z,99.99
2017-03-11T06:01:24.927Z,99.99
2017-03-11T06:02:38.632Z,99.99
2017-03-11T06:03:52.320Z,99.99
2017-03-11T06:05:05.429Z,99.99
2017-03-11T06:06:19.202Z,99.99
2017-03-11T06:07:32.424Z,99.99
2017-03-11T06:08:46.129Z,99.99
2017-03-11T06:09:59.785Z,99.99
2017-03-11T06:11:12.973Z,99.99
2017-03-11T06:12:26.798Z,99.99
2017-03-11T06:13:40.550Z,99.99
2017-03-11T06:14:54.271Z,99.99
2017-03-11T06:16:07.937Z,99.99
2017-03-11T06:17:21.121Z,99.99
2017-03-11T06:18:34.834Z,99.99
2017-03-11T06:19:48.506Z,99.99
2017-03-11T06:21:02.162Z,99.99
2017-03-11T06:22:15.846Z,99.99
2017-03-11T06:23:29.528Z,99.99
2017-03-11T06:24:42.605Z,99.99
2017-03-11T06:25:56.288Z,99.99
2017-03-11T06:27:09.995Z,99.99
2017-03-11T06:28:23.676Z,99.99
2017-03-11T06:29:37.365Z,99.99
2017-03-11T06:30:51.058Z,99.99
2017-03-11T06:32:04.768Z,99.99
2017-03-11T06:33:18.482Z,99.99
2017-03-11T06:34:32.188Z,99.99
2017-03-11T06:35:45.885Z,99.99
2017-03-11T06:36:59.620Z,99.99
2017-03-11T06:38:13.316Z,99.99
2017-03-11T06:39:27.073Z,99.99
2017-03-11T06:40:40.792Z,99.99
2017-03-11T06:41:54.481Z,99.99
2017-03-11T06:43:08.144Z,99.99
2017-03-11T06:44:21.850Z,99.99
2017-03-11T06:45:35.545Z,99.99
2017-03-11T06:46:49.240Z,99.99
2017-03-11T06:48:02.933Z,99.99
2017-03-11T06:49:16.609Z,99.99
2017-03-11T06:50:30.290Z,99.99
2017-03-11T06:51:43.996Z,99.99
2017-03-11T06:52:57.703Z,99.99
2017-03-11T06:54:11.373Z,99.99
2017-03-11T06:55:25.071Z,99.99
2017-03-11T06:56:38.811Z,99.99
2017-03-11T06:57:51.879Z,99.99
2017-03-11T06:59:05.611Z,99.99
2017-03-11T07:00:19.277Z,99.99
2017-03-11T07:01:32.977Z,99.99
2017-03-11T07:02:46.684Z,99.99
2017-03-11T07:04:00.362Z,99.99
2017-03-11T07:05:13.600Z,99.99
2017-03-11T07:06:27.283Z,99.99
2017-03-11T07:07:40.999Z,99.99
2017-03-11T07:08:54.715Z,99.99
2017-03-11T07:10:08.498Z,99.99
2017-03-11T07:11:22.200Z,99.99
2017-03-11T07:12:35.886Z,99.99
2017-03-11T07:13:49.573Z,99.99
2017-03-11T07:15:03.288Z,99.99
2017-03-11T07:16:16.978Z,99.99
2017-03-11T07:17:30.697Z,99.99
2017-03-11T07:18:43.789Z,99.99
2017-03-11T07:19:57.461Z,99.99
2017-03-11T07:21:10.560Z,99.99
2017-03-11T07:22:23.048Z,99.99
2017-03-11T07:23:36.745Z,99.99
2017-03-11T07:24:50.443Z,99.99
2017-03-11T07:26:04.130Z,99.99
2017-03-11T07:27:17.846Z,99.99
2017-03-11T07:28:31.560Z,99.99
2017-03-11T07:29:45.286Z,99.99
2017-03-11T07:30:58.981Z,99.99
2017-03-11T07:32:12.673Z,99.99
2017-03-11T07:33:26.374Z,99.99
2017-03-11T07:34:40.058Z,99.99
2017-03-11T07:35:53.170Z,99.99
2017-03-11T07:37:06.857Z,99.99
2017-03-11T07:38:20.546Z,99.99
2017-03-11T07:39:33.662Z,99.99
2017-03-11T07:40:46.735Z,99.99
2017-03-11T07:42:00.410Z,99.99
2017-03-11T07:43:13.557Z,99.99
2017-03-11T07:44:27.244Z,99.99
2017-03-11T07:45:40.932Z,99.99
2017-03-11T07:46:54.598Z,99.99
2017-03-11T07:48:08.312Z,99.99
2017-03-11T07:49:21.980Z,99.99
2017-03-11T07:50:35.665Z,99.99
2017-03-11T07:51:49.374Z,99.99
2017-03-11T07:53:03.057Z,99.99
2017-03-11T07:54:16.171Z,99.99
2017-03-11T07:55:29.833Z,99.99
2017-03-11T07:56:42.923Z,99.99
2017-03-11T07:57:56.590Z,99.99
2017-03-11T07:59:10.269Z,99.99
2017-03-11T08:00:23.356Z,99.99
2017-03-11T08:01:37.055Z,99.99
2017-03-11T08:02:50.768Z,99.99
2017-03-11T08:04:04.520Z,99.99
2017-03-11T08:05:18.239Z,99.99
2017-03-11T08:06:31.951Z,99.99
2017-03-11T08:07:45.646Z,99.99
2017-03-11T08:08:58.152Z,99.99
2017-03-11T08:10:11.908Z,99.99
2017-03-11T08:11:25.569Z,99.99
2017-03-11T08:12:39.271Z,99.99
2017-03-11T08:13:52.968Z,99.99
2017-03-11T08:15:06.661Z,99.99
2017-03-11T08:16:20.374Z,99.99
2017-03-11T08:17:34.065Z,99.99
2017-03-11T08:18:47.784Z,99.99
2017-03-11T08:20:01.476Z,99.99
2017-03-11T08:21:15.167Z,99.99
2017-03-11T08:22:28.947Z,99.99
2017-03-11T08:23:42.624Z,99.99
2017-03-11T08:24:56.315Z,99.99
2017-03-11T08:26:09.985Z,99.99
2017-03-11T08:27:23.059Z,99.99
2017-03-11T08:28:36.799Z,99.99
2017-03-11T08:29:50.657Z,99.99
2017-03-11T08:31:04.532Z,99.99
2017-03-11T08:32:18.200Z,99.99
2017-03-11T08:33:31.902Z,99.99
2017-03-11T08:34:45.624Z,99.99
2017-03-11T08:35:59.281Z,99.99
2017-03-11T08:37:12.409Z,99.99
2017-03-11T08:38:26.133Z,99.99
2017-03-11T08:39:39.842Z,99.99
2017-03-11T08:40:53.549Z,99.99
2017-03-11T08:42:07.243Z,99.99
2017-03-11T08:43:20.315Z,99.99
2017-03-11T08:44:34.005Z,99.99
2017-03-11T08:45:47.095Z,99.99
2017-03-11T08:47:00.774Z,99.99
2017-03-11T08:48:14.459Z,99.99
2017-03-11T08:49:28.119Z,99.99
2017-03-11T08:50:41.813Z,99.99
2017-03-11T08:51:54.897Z,99.99
2017-03-11T08:53:08.620Z,99.99
2017-03-11T08:54:22.393Z,99.99
2017-03-11T08:55:36.097Z,99.99
2017-03-11T08:56:49.772Z,99.99
2017-03-11T08:58:03.451Z,99.99
2017-03-11T08:59:17.121Z,99.99
2017-03-11T09:00:30.843Z,99.99
2017-03-11T09:01:44.530Z,99.99
2017-03-11T09:02:58.213Z,99.99
2017-03-11T09:04:11.913Z,99.99
2017-03-11T09:05:25.598Z,99.99
2017-03-11T09:06:39.295Z,99.99
2017-03-11T09:07:52.978Z,99.99
2017-03-11T09:09:06.689Z,99.99
2017-03-11T09:10:20.384Z,99.99
2017-03-11T09:11:34.095Z,99.99
2017-03-11T09:12:47.807Z,99.99
2017-03-11T09:14:01.517Z,99.99
2017-03-11T09:15:15.224Z,99.99
2017-03-11T09:16:28.983Z,99.99
2017-03-11T09:17:42.078Z,99.99
2017-03-11T09:18:55.775Z,99.99
2017-03-11T09:20:09.470Z,99.99
2017-03-11T09:21:23.167Z,99.99
2017-03-11T09:22:36.877Z,99.99
2017-03-11T09:23:49.371Z,99.99
2017-03-11T09:25:03.076Z,99.99
2017-03-11T09:26:16.756Z,99.99
2017-03-11T09:27:29.871Z,99.99
2017-03-11T09:28:43.547Z,99.99
2017-03-11T09:29:57.251Z,99.99
2017-03-11T09:31:10.948Z,99.99
2017-03-11T09:32:24.629Z,99.99
2017-03-11T09:33:37.696Z,99.99
2017-03-11T09:34:51.385Z,99.99
2017-03-11T09:36:05.091Z,99.99
2017-03-11T09:37:18.755Z,99.99
2017-03-11T09:38:32.453Z,99.99
2017-03-11T09:39:46.149Z,99.99
2017-03-11T09:40:59.853Z,99.99
2017-03-11T09:42:13.542Z,99.99
2017-03-11T09:43:26.641Z,99.99
2017-03-11T09:44:40.309Z,99.99
2017-03-11T09:45:54.008Z,99.99
2017-03-11T09:47:07.733Z,99.99
2017-03-11T09:48:21.416Z,99.99
2017-03-11T09:49:35.120Z,99.99
2017-03-11T09:50:48.837Z,99.99
2017-03-11T09:52:02.525Z,99.99
2017-03-11T09:53:15.606Z,99.99
2017-03-11T09:54:29.325Z,99.99
2017-03-11T09:55:43.015Z,99.99
2017-03-11T09:56:56.101Z,99.99
2017-03-11T09:58:09.242Z,99.99
2017-03-11T09:59:22.921Z,99.99
2017-03-11T10:00:36.607Z,99.99
2017-03-11T10:01:50.316Z,99.99
2017-03-11T10:03:03.992Z,99.99
2017-03-11T10:04:17.680Z,99.99
2017-03-11T10:05:31.422Z,99.99
2017-03-11T10:06:45.121Z,99.99
2017-03-11T10:07:58.813Z,99.99
2017-03-11T10:09:12.515Z,99.99
2017-03-11T10:10:26.218Z,99.99
2017-03-11T10:11:39.301Z,99.99
2017-03-11T10:12:52.395Z,99.99
2017-03-11T10:14:06.085Z,99.99
2017-03-11T10:15:19.778Z,99.99
2017-03-11T10:16:33.534Z,99.99
2017-03-11T10:17:46.039Z,99.99
2017-03-11T10:18:59.760Z,99.99
2017-03-11T10:20:13.466Z,99.99
2017-03-11T10:21:27.156Z,99.99
2017-03-11T10:22:40.275Z,98.44
2017-03-11T10:23:53.962Z,98.05
2017-03-11T10:25:07.664Z,98.44
2017-03-11T10:26:21.352Z,98.83
2017-03-11T10:27:35.023Z,98.44
2017-03-11T10:28:48.703Z,98.78
2017-03-11T10:30:02.404Z,98.15
2017-03-11T10:31:14.892Z,98.35
2017-03-11T10:32:28.600Z,96.17
2017-03-11T10:33:42.284Z,94.23
2017-03-11T10:34:56.023Z,93.88
2017-03-11T10:36:09.699Z,92.19
2017-03-11T10:37:23.394Z,90.78
2017-03-11T10:38:37.094Z,89.32
2017-03-11T10:39:50.797Z,89.71
2017-03-11T10:41:04.479Z,89.32
2017-03-11T10:42:17.613Z,89.52
2017-03-11T10:43:31.289Z,88.26
2017-03-11T10:44:44.965Z,88.35
2017-03-11T10:45:58.053Z,88.2
2017-03-11T10:47:11.717Z,86.94
2017-03-11T10:48:25.383Z,86.21
2017-03-11T10:49:39.112Z,84.7
2017-03-11T10:50:52.218Z,84.99
2017-03-11T10:52:05.910Z,85.28
2017-03-11T10:53:18.998Z,87.57
2017-03-11T10:54:32.685Z,86.9
2017-03-11T10:55:46.398Z,88.84
2017-03-11T10:57:00.094Z,88.55
2017-03-11T10:58:13.828Z,88.06
2017-03-11T10:59:27.493Z,87.82
2017-03-11T11:00:41.161Z,87.19
2017-03-11T11:01:54.872Z,86.46
2017-03-11T11:03:08.593Z,84.94
2017-03-11T11:04:22.276Z,84.94
2017-03-11T11:05:35.994Z,84.66
2017-03-11T11:06:49.689Z,85.24
2017-03-11T11:08:03.345Z,81.59
2017-03-11T11:09:17.042Z,81.92
2017-03-11T11:10:30.719Z,80.94
2017-03-11T11:11:44.408Z,81.63
2017-03-11T11:12:58.129Z,81.73
2017-03-11T11:14:11.798Z,80.27
2017-03-11T11:15:25.499Z,81.53
2017-03-11T11:16:39.196Z,81.04
2017-03-11T11:17:52.883Z,81.18
2017-03-11T11:19:06.591Z,81.04
2017-03-11T11:20:20.269Z,83.09
2017-03-11T11:21:33.964Z,84.11
2017-03-11T11:22:47.659Z,83.53
2017-03-11T11:24:01.334Z,81.98
2017-03-11T11:25:15.008Z,80.42
2017-03-11T11:26:28.696Z,81.24
2017-03-11T11:27:41.832Z,82.37
2017-03-11T11:28:55.531Z,84.21
2017-03-11T11:30:09.229Z,84.85
2017-03-11T11:31:22.925Z,85.24
2017-03-11T11:32:36.029Z,86.94
2017-03-11T11:33:49.730Z,87.58
2017-03-11T11:35:03.437Z,86.9
2017-03-11T11:36:17.141Z,85.19
2017-03-11T11:37:30.271Z,82.37
2017-03-11T11:38:43.959Z,79.39
2017-03-11T11:39:57.636Z,78.27
2017-03-11T11:41:11.358Z,77.37
2017-03-11T11:42:25.079Z,74.58
2017-03-11T11:43:38.768Z,72.86
2017-03-11T11:44:51.854Z,72.9
2017-03-11T11:46:05.567Z,72.35
2017-03-11T11:47:18.645Z,70.6
2017-03-11T11:48:31.761Z,69.49
2017-03-11T11:49:45.481Z,69.4
2017-03-11T11:50:59.219Z,71.67
2017-03-11T11:52:12.918Z,71.83
2017-03-11T11:53:26.628Z,73.88
2017-03-11T11:54:40.333Z,75.01
2017-03-11T11:55:54.071Z,75.52
2017-03-11T11:57:07.783Z,75.71
2017-03-11T11:58:21.532Z,74.58
2017-03-11T11:59:35.249Z,73.45
2017-03-11T12:00:48.359Z,74.43
2017-03-11T12:02:02.069Z,75.65
2017-03-11T12:03:15.783Z,75.62
2017-03-11T12:04:28.900Z,74.55
2017-03-11T12:05:42.567Z,70.68
2017-03-11T12:06:55.678Z,70.37
2017-03-11T12:08:09.379Z,70.79
2017-03-11T12:09:23.110Z,69.78
2017-03-11T12:10:36.813Z,69.53
2017-03-11T12:11:50.561Z,69.04
2017-03-11T12:13:04.300Z,68.77
2017-03-11T12:14:18.020Z,66.86
2017-03-11T12:15:31.694Z,66.37
2017-03-11T12:16:45.408Z,64.29
2017-03-11T12:17:59.120Z,61.61
2017-03-11T12:19:12.208Z,62.13
2017-03-11T12:20:25.353Z,63.21
2017-03-11T12:21:39.120Z,63.86
2017-03-11T12:22:52.220Z,65.75
2017-03-11T12:24:05.339Z,68.71
2017-03-11T12:25:19.028Z,70.01
2017-03-11T12:26:32.732Z,70.86
2017-03-11T12:27:45.838Z,73.16
2017-03-11T12:28:58.330Z,74.65
2017-03-11T12:30:12.065Z,76.55
2017-03-11T12:31:25.760Z,77.04
2017-03-11T12:32:39.478Z,76.26
2017-03-11T12:33:52.606Z,77.58
2017-03-11T12:35:05.717Z,76.35
2017-03-11T12:36:19.400Z,76.55
2017-03-11T12:37:32.498Z,75.68
2017-03-11T12:38:46.234Z,76.17
2017-03-11T12:39:59.955Z,77.14
2017-03-11T12:41:13.699Z,77.97
2017-03-11T12:42:27.408Z,77.29
2017-03-11T12:43:41.105Z,75.58
2017-03-11T12:44:54.809Z,74.26
2017-03-11T12:46:08.533Z,72.44
2017-03-11T13:18:25.557Z,59.98
2017-03-11T13:19:38.663Z,60.08
2017-03-11T13:20:52.391Z,60.47
2017-03-11T13:22:06.090Z,59.23
2017-03-11T13:23:19.843Z,60.16
2017-03-11T13:24:33.540Z,61.43
2017-03-11T13:25:47.242Z,60.45
2017-03-11T13:27:00.962Z,59.99
2017-03-11T13:28:14.674Z,59.82
2017-03-11T13:29:27.775Z,60.5
2017-03-11T13:30:41.444Z,61.72
2017-03-11T13:31:55.127Z,61.88
2017-03-11T13:33:08.238Z,61.2
2017-03-11T13:34:21.962Z,57.81
2017-03-11T13:35:35.103Z,57.28
2017-03-11T13:36:48.825Z,56.75
2017-03-11T13:38:02.537Z,54.48
2017-03-11T13:39:16.250Z,51.89
2017-03-11T13:40:29.966Z,53.16
2017-03-11T13:41:43.690Z,52.96
2017-03-11T13:42:57.432Z,54.5
2017-03-11T13:44:11.156Z,56.48
2017-03-11T13:45:24.899Z,55.21
2017-03-11T13:46:38.006Z,55.04
2017-03-11T13:47:51.130Z,53.59
2017-03-11T13:49:04.846Z,54.94
2017-03-11T13:50:18.542Z,55.04
2017-03-11T13:51:32.275Z,56.19
2017-03-11T13:52:45.982Z,57.34
2017-03-11T13:53:59.700Z,55.9
2017-03-11T13:55:13.410Z,56.48
2017-03-11T13:56:27.177Z,55.21
2017-03-11T13:57:40.911Z,55.51
2017-03-11T13:58:54.621Z,55.8
2017-03-11T14:00:08.373Z,54.33
2017-03-11T14:01:22.064Z,53.64
2017-03-11T14:02:35.793Z,53.59
2017-03-11T14:03:49.530Z,54.63
2017-03-11T14:05:03.236Z,55.05
2017-03-11T14:06:16.970Z,56.1
2017-03-11T14:07:30.662Z,55.39
2017-03-11T14:08:44.378Z,55.19
2017-03-11T14:09:57.517Z,55.36
2017-03-11T14:11:10.628Z,55.88
2017-03-11T14:12:23.710Z,54.7
2017-03-11T14:13:37.465Z,54.04
2017-03-11T14:14:51.186Z,54.33
2017-03-11T14:16:04.282Z,56.27
2017-03-11T14:17:18.000Z,56.24
2017-03-11T14:18:31.720Z,56.24
2017-03-11T14:19:45.433Z,58.37
2017-03-11T14:20:59.150Z,57.78
2017-03-11T14:22:12.859Z,57.88
2017-03-11T14:23:26.607Z,56.31
2017-03-11T14:24:40.322Z,56.71
2017-03-11T14:25:53.431Z,57.56
2017-03-11T14:27:07.169Z,57.82
2017-03-11T14:28:20.349Z,58.41
2017-03-11T14:29:34.060Z,57.24
2017-03-11T14:30:47.172Z,56.97
2017-03-11T14:32:00.294Z,56.97
2017-03-11T14:33:14.154Z,55.82
2017-03-11T14:34:27.907Z,54.25
2017-03-11T14:35:41.023Z,53.59
2017-03-11T14:36:54.725Z,54.5
2017-03-11T14:38:08.505Z,54.7
2017-03-11T14:39:22.219Z,54.31
2017-03-11T14:40:35.915Z,54.48
2017-03-11T14:41:49.615Z,52.81
2017-03-11T14:43:03.373Z,50.68
2017-03-11T14:44:17.071Z,49.04
2017-03-11T14:45:30.162Z,49.7
2017-03-11T14:46:43.255Z,51.46
2017-03-11T14:47:56.968Z,50.09
2017-03-11T14:49:10.664Z,48.96
2017-03-11T14:50:24.381Z,46.53
2017-03-11T14:51:38.305Z,45.97
2017-03-11T14:52:52.275Z,46.28
2017-03-11T14:54:05.996Z,47.66
2017-03-11T14:55:19.720Z,47.93
2017-03-11T14:56:33.423Z,48.72
2017-03-11T14:57:46.570Z,47.91
2017-03-11T14:59:00.309Z,50.34
2017-03-11T15:00:14.043Z,50.09
2017-03-11T15:01:27.175Z,51.71
2017-03-11T15:02:40.877Z,51.71
2017-03-11T15:03:54.667Z,51.42
2017-03-11T15:05:08.375Z,51.42
2017-03-11T15:06:22.104Z,50.73
2017-03-11T15:07:35.836Z,50.76
2017-03-11T15:08:49.539Z,50.76
2017-03-11T15:10:02.640Z,52.55
2017-03-11T15:11:15.774Z,53.33
2017-03-11T15:12:28.922Z,53.4
2017-03-11T15:13:42.088Z,55.6
2017-03-11T15:14:54.661Z,56.16
2017-03-11T15:16:08.367Z,56.52
2017-03-11T15:17:22.059Z,57.57
2017-03-11T15:18:35.189Z,56.4
2017-03-11T15:19:48.954Z,55.94
2017-03-11T15:21:02.643Z,55.96
2017-03-11T15:22:16.381Z,54.3
2017-03-11T15:23:30.078Z,53.35
2017-03-11T15:24:43.789Z,53.89
2017-03-11T15:25:57.514Z,52.45
2017-03-11T15:27:11.234Z,51.66
2017-03-11T15:28:24.374Z,48.65
2017-03-11T15:29:37.473Z,51.79
2017-03-11T15:30:51.189Z,51.66
2017-03-11T15:32:04.306Z,52.74
2017-03-11T15:33:17.993Z,52.84
2017-03-11T15:34:31.122Z,53.63
2017-03-11T15:35:44.790Z,55.26
2017-03-11T15:36:58.515Z,56.02
2017-03-11T15:38:12.259Z,56.21
2017-03-11T15:39:25.983Z,57.49
2017-03-11T15:40:39.672Z,58.9
2017-03-11T15:41:53.351Z,58.87
2017-03-11T15:43:07.105Z,57.01
2017-03-11T15:44:20.827Z,55.87
2017-03-11T15:45:34.536Z,53.96
2017-03-11T15:46:48.237Z,52.67
2017-03-11T15:48:01.921Z,51.25
2017-03-11T15:49:14.508Z,50.42
2017-03-11T15:50:27.629Z,50.9
2017-03-11T15:51:41.376Z,49.65
2017-03-11T15:52:55.073Z,49.43
2017-03-11T15:54:08.795Z,51.76
2017-03-11T15:55:22.024Z,51.62
2017-03-11T15:56:35.783Z,52.69
2017-03-11T15:58:57.828Z,50.76
2017-03-11T16:00:11.584Z,50.37
2017-03-11T16:01:25.489Z,50.85
2017-03-11T16:02:39.229Z,49.29
2017-03-11T16:03:52.931Z,49.63
2017-03-11T16:05:06.639Z,49.63
2017-03-11T16:06:20.383Z,48.67
2017-03-11T16:07:34.206Z,47.58
2017-03-11T16:08:47.322Z,46.13
2017-03-11T16:10:01.049Z,46.62
2017-03-11T16:11:14.911Z,47.12
2017-03-11T16:12:28.655Z,46.33
2017-03-11T16:13:41.820Z,45.13
2017-03-11T16:14:55.523Z,42.71
2017-03-11T16:16:09.318Z,44.19
2017-03-11T16:17:23.269Z,44.29
2017-03-11T16:18:36.976Z,44.09
2017-03-11T16:19:50.691Z,40.47
2017-03-11T16:21:04.416Z,40.9
2017-03-11T16:22:17.640Z,42.18
2017-03-11T16:23:31.596Z,43.23
2017-03-11T16:24:45.330Z,45.17